Time;durP1;ratioP1;P1;durP2;ratioP2;P2;SDS_P1;SDS_P2;PMS_P1;PMS_P2;Temp;Humidity;BMP_temperature;BMP_pressure;BME280_temperature;BME280_humidity;BME280_pressure;Samples;Min_cycle;Max_cycle;Signal;HPM_P1;HPM_P2
2023/03/27 00:00:49;;;;;;;9.10;3.80;;;333.20;2124.80;;;;;;5101916;28;20027;-75
2023/03/27 00:03:16;;;;;;;10.18;4.15;;;333.20;2099.20;;;;;;5100068;28;20024;-75
2023/03/27 00:05:43;;;;;;;10.60;4.53;;;333.10;2124.80;;;;;;5099262;28;20497;-75
2023/03/27 00:08:09;;;;;;;6.60;3.80;;;333.10;2150.40;;;;;;5106114;28;20070;-75
2023/03/27 00:10:36;;;;;;;10.38;4.68;;;333.10;2124.80;;;;;;5103185;28;20057;-75
2023/03/27 00:13:04;;;;;;;9.77;4.82;;;333.10;2150.40;;;;;;5100949;28;20481;-74
2023/03/27 00:15:30;;;;;;;9.80;3.72;;;333.10;2176.00;;;;;;5104626;28;20042;-75
2023/03/27 00:17:57;;;;;;;7.00;3.67;;;333.00;2329.60;;;;;;5100481;28;20020;-74
2023/03/27 00:20:25;;;;;;;7.68;3.90;;;333.00;2329.60;;;;;;5096567;28;20028;-75
2023/03/27 00:22:55;;;;;;;7.15;3.88;;;332.90;2329.60;;;;;;5098575;28;20829;-74
2023/03/27 00:25:23;;;;;;;10.10;5.15;;;332.90;2329.60;;;;;;5096985;28;20055;-75
2023/03/27 00:27:49;;;;;;;8.00;4.13;;;332.90;2329.60;;;;;;5103984;28;20027;-75
2023/03/27 00:30:16;;;;;;;6.90;4.20;;;332.90;2329.60;;;;;;5103602;28;20026;-75
2023/03/27 00:32:42;;;;;;;9.10;3.60;;;332.90;2329.60;;;;;;5106018;28;20094;-75
2023/03/27 00:35:08;;;;;;;12.07;3.58;;;333.00;2329.60;;;;;;5103070;28;20052;-75
2023/03/27 00:37:35;;;;;;;7.70;4.18;;;332.90;2329.60;;;;;;5077857;28;20031;-75
2023/03/27 00:40:02;;;;;;;6.90;4.00;;;332.90;2329.60;;;;;;5085406;28;20066;-75
2023/03/27 00:42:27;;;;;;;13.90;4.15;;;332.90;2329.60;;;;;;5087583;28;20474;-75
2023/03/27 00:44:53;;;;;;;9.45;3.58;;;332.90;2329.60;;;;;;5078770;28;20127;-75
2023/03/27 00:47:29;;;;;;;9.60;4.13;;;332.90;2329.60;;;;;;5084367;28;20023;-75
2023/03/27 00:49:56;;;;;;;9.73;4.18;;;332.80;2329.60;;;;;;5107645;28;20481;-75
2023/03/27 00:52:28;;;;;;;7.63;3.70;;;332.80;2329.60;;;;;;5097719;28;20103;-75
2023/03/27 00:54:55;;;;;;;9.95;4.03;;;332.80;2329.60;;;;;;5104510;28;20028;-75
2023/03/27 00:57:22;;;;;;;7.68;3.53;;;332.80;2329.60;;;;;;5103043;28;20027;-74
2023/03/27 00:59:51;;;;;;;6.90;4.07;;;332.80;2329.60;;;;;;5095442;28;20047;-75
2023/03/27 01:02:17;;;;;;;6.88;3.65;;;332.80;2329.60;;;;;;5103336;28;20481;-75
2023/03/27 01:04:44;;;;;;;8.10;3.80;;;332.80;2329.60;;;;;;5100882;28;20028;-75
2023/03/27 01:07:11;;;;;;;11.52;4.20;;;332.90;2329.60;;;;;;5102971;28;20040;-75
2023/03/27 01:09:37;;;;;;;12.50;4.10;;;332.90;2329.60;;;;;;5101862;28;20095;-75
2023/03/27 01:12:06;;;;;;;10.52;4.60;;;332.90;2329.60;;;;;;5101804;28;20428;-75
2023/03/27 01:14:49;;;;;;;6.85;3.65;;;332.90;2329.60;;;;;;5109013;28;20031;-75
2023/03/27 01:17:42;;;;;;;12.10;3.85;;;333.00;2329.60;;;;;;5100466;28;20439;-75
2023/03/27 01:20:31;;;;;;;5.68;3.60;;;333.00;2329.60;;;;;;5104375;28;20458;-75
2023/03/27 01:23:30;;;;;;;6.80;3.95;;;333.00;2329.60;;;;;;5098422;28;20028;-75
2023/03/27 01:25:56;;;;;;;8.00;3.58;;;333.00;2329.60;;;;;;5109169;28;20550;-75
2023/03/27 01:28:54;;;;;;;8.02;4.45;;;333.00;2329.60;;;;;;5105741;28;20067;-75
2023/03/27 01:31:20;;;;;;;9.45;4.18;;;333.00;2329.60;;;;;;5103205;28;20028;-75
2023/03/27 01:34:04;;;;;;;9.05;3.90;;;333.00;2329.60;;;;;;5103153;28;20074;-74
2023/03/27 01:37:04;;;;;;;11.00;4.63;;;332.90;2329.60;;;;;;5100798;28;20396;-74
2023/03/27 01:39:36;;;;;;;10.90;4.07;;;332.90;2329.60;;;;;;5099055;28;20036;-74
2023/03/27 01:42:23;;;;;;;7.57;3.65;;;332.90;2329.60;;;;;;5100639;28;20024;-75
2023/03/27 01:45:09;;;;;;;7.57;4.10;;;332.90;2329.60;;;;;;5103210;28;20035;-75
2023/03/27 01:47:39;;;;;;;7.63;3.50;;;332.90;2329.60;;;;;;5098840;28;20064;-74
2023/03/27 01:50:38;;;;;;;7.75;3.90;;;332.90;2329.60;;;;;;5081238;28;20027;-75
2023/03/27 01:53:16;;;;;;;7.57;4.00;;;332.90;2329.60;;;;;;5102726;28;20035;-75
2023/03/27 01:55:49;;;;;;;8.55;4.00;;;332.90;2329.60;;;;;;5101998;28;20051;-75
2023/03/27 01:58:50;;;;;;;7.32;4.05;;;332.90;2329.60;;;;;;5100729;28;20082;-75
2023/03/27 02:01:24;;;;;;;7.88;3.67;;;332.90;2329.60;;;;;;5102779;28;20047;-75
2023/03/27 02:03:56;;;;;;;8.10;4.03;;;332.90;2329.60;;;;;;5103475;28;20031;-75
2023/03/27 02:06:32;;;;;;;8.10;4.43;;;332.90;2329.60;;;;;;5098285;28;20040;-75
2023/03/27 02:09:40;;;;;;;8.02;4.13;;;332.90;2329.60;;;;;;5101780;28;20106;-75
2023/03/27 02:12:15;;;;;;;9.00;3.60;;;333.00;2329.60;;;;;;5100556;28;20048;-75
2023/03/27 02:14:55;;;;;;;10.85;3.67;;;333.00;2329.60;;;;;;5099215;28;20505;-75
2023/03/27 02:17:24;;;;;;;12.00;4.10;;;333.00;2329.60;;;;;;5102963;28;20024;-75
2023/03/27 02:20:06;;;;;;;7.78;3.95;;;333.00;2329.60;;;;;;5101533;28;20039;-75
2023/03/27 02:22:32;;;;;;;8.65;4.60;;;333.00;2329.60;;;;;;5098384;28;20032;-75
2023/03/27 02:24:58;;;;;;;8.88;4.18;;;333.10;2329.60;;;;;;5104949;28;21047;-75
2023/03/27 02:27:44;;;;;;;8.07;3.72;;;333.10;2329.60;;;;;;5093913;28;20036;-75
2023/03/27 02:30:31;;;;;;;6.65;3.72;;;333.20;2329.60;;;;;;5103890;28;20027;-75
2023/03/27 02:33:14;;;;;;;;;;;333.20;2329.60;;;;;;5109617;28;20036;-75
2023/03/27 02:36:15;;;;;;;7.95;4.15;;;333.20;2329.60;;;;;;5113354;28;19930;-75
2023/03/27 02:38:50;;;;;;;11.80;3.75;;;333.20;2329.60;;;;;;5091566;28;20024;-75
2023/03/27 02:41:50;;;;;;;9.05;4.10;;;333.20;2329.60;;;;;;5091653;28;20389;-75
2023/03/27 02:44:31;;;;;;;8.10;3.80;;;333.20;2329.60;;;;;;5091557;28;20485;-75
2023/03/27 02:47:22;;;;;;;9.02;3.45;;;333.20;2329.60;;;;;;5092678;28;20070;-76
2023/03/27 02:49:52;;;;;;;9.52;3.30;;;333.20;2329.60;;;;;;5074610;28;20497;-75
2023/03/27 02:52:27;;;;;;;7.72;4.28;;;333.20;2329.60;;;;;;5091437;28;20032;-75
2023/03/27 02:54:58;;;;;;;8.57;3.40;;;333.20;2329.60;;;;;;5091509;28;20048;-75
2023/03/27 02:57:27;;;;;;;15.43;7.63;;;333.20;2329.60;;;;;;5091450;28;20029;-75
2023/03/27 02:59:56;;;;;;;10.43;3.80;;;333.20;2329.60;;;;;;5092761;28;20027;-75
2023/03/27 03:02:28;;;;;;;11.38;5.38;;;333.20;2329.60;;;;;;5113333;28;20107;-75
2023/03/27 03:05:06;;;;;;;9.90;4.45;;;333.20;2329.60;;;;;;5115304;28;20400;-75
2023/03/27 03:07:33;;;;;;;7.47;3.92;;;333.30;2329.60;;;;;;5115266;28;20477;-76
2023/03/27 03:10:00;;;;;;;15.05;4.65;;;333.30;2329.60;;;;;;5115343;28;20020;-75
2023/03/27 03:12:25;;;;;;;9.48;4.40;;;333.30;2329.60;;;;;;5116395;28;20024;-75
2023/03/27 03:14:51;;;;;;;7.40;3.58;;;333.20;2329.60;;;;;;5115223;28;20030;-76
2023/03/27 03:17:17;;;;;;;7.32;3.38;;;333.20;2329.60;;;;;;5116445;28;20028;-75
2023/03/27 03:19:43;;;;;;;6.68;3.83;;;333.20;2329.60;;;;;;5115109;28;20484;-75
2023/03/27 03:22:10;;;;;;;5.18;3.08;;;333.60;2329.60;;;;;;5116285;28;20035;-75
2023/03/27 03:24:36;;;;;;;7.60;3.58;;;358.70;2329.60;;;;;;5116402;27;20479;-75
2023/03/27 03:27:02;;;;;;;8.90;3.65;;;358.80;2329.60;;;;;;5114844;28;20036;-75
2023/03/27 03:29:28;;;;;;;6.80;3.60;;;358.70;2329.60;;;;;;5114097;28;20047;-75
2023/03/27 03:31:55;;;;;;;7.80;3.70;;;358.50;2329.60;;;;;;5115863;28;20019;-74
2023/03/27 03:34:26;;;;;;;8.25;4.45;;;358.40;2329.60;;;;;;5115797;28;20055;-75
2023/03/27 03:36:54;;;;;;;6.30;3.45;;;333.70;2329.60;;;;;;5097208;28;20038;-74
2023/03/27 03:39:21;;;;;;;6.07;3.65;;;333.60;2329.60;;;;;;5115931;28;20023;-75
2023/03/27 03:41:46;;;;;;;9.98;3.65;;;333.50;2329.60;;;;;;5097702;28;20023;-75
2023/03/27 03:44:12;;;;;;;8.35;3.78;;;333.40;2329.60;;;;;;5097077;28;20031;-75
2023/03/27 03:46:38;;;;;;;11.48;4.10;;;333.40;2329.60;;;;;;5115685;28;20043;-76
2023/03/27 03:49:04;;;;;;;7.20;3.40;;;333.40;2329.60;;;;;;5129258;27;20114;-76
2023/03/27 03:51:31;;;;;;;9.88;3.83;;;333.30;2329.60;;;;;;5099378;28;20042;-75
2023/03/27 03:53:57;;;;;;;9.55;4.10;;;333.20;2329.60;;;;;;5120502;27;20016;-75
2023/03/27 03:56:23;;;;;;;9.57;3.97;;;333.30;2329.60;;;;;;5117512;27;20026;-75
2023/03/27 03:58:49;;;;;;;6.22;3.80;;;333.20;2329.60;;;;;;5096223;28;20024;-75
2023/03/27 04:01:19;;;;;;;8.10;3.75;;;333.10;2329.60;;;;;;5096322;28;20465;-76
2023/03/27 04:03:46;;;;;;;15.55;4.93;;;333.20;2329.60;;;;;;5093372;28;20061;-75
2023/03/27 04:06:11;;;;;;;6.90;4.47;;;333.20;2329.60;;;;;;5101577;28;20047;-75
2023/03/27 04:08:38;;;;;;;6.38;3.70;;;333.20;2329.60;;;;;;5117554;27;20019;-76
2023/03/27 04:11:04;;;;;;;7.07;4.13;;;333.20;2329.60;;;;;;5116951;27;20012;-75
2023/03/27 04:13:31;;;;;;;9.60;4.07;;;333.20;2329.60;;;;;;5114299;28;20063;-74
2023/03/27 04:16:00;;;;;;;7.60;3.90;;;333.20;2329.60;;;;;;5104189;27;20070;-75
2023/03/27 04:18:29;;;;;;;7.35;3.67;;;333.20;2329.60;;;;;;5119701;27;20111;-75
2023/03/27 04:20:57;;;;;;;8.50;4.20;;;333.20;2329.60;;;;;;5101336;28;20024;-75
2023/03/27 04:23:29;;;;;;;9.38;4.97;;;333.20;2329.60;;;;;;5107112;27;20027;-75
2023/03/27 04:25:58;;;;;;;12.38;6.75;;;333.20;2329.60;;;;;;5119800;27;20110;-75
2023/03/27 04:28:26;;;;;;;8.07;4.43;;;333.30;2329.60;;;;;;5116721;27;20018;-75
2023/03/27 04:30:52;;;;;;;8.23;4.22;;;333.20;2329.60;;;;;;5095778;28;20024;-75
2023/03/27 04:33:17;;;;;;;9.50;4.10;;;333.30;2329.60;;;;;;5098162;28;20487;-75
2023/03/27 04:35:44;;;;;;;6.32;4.03;;;333.40;2329.60;;;;;;5098789;27;20439;-75
2023/03/27 04:38:12;;;;;;;9.65;4.43;;;333.20;2329.60;;;;;;5100941;27;20491;-75
2023/03/27 04:40:38;;;;;;;5.78;3.20;;;333.10;2329.60;;;;;;5097845;27;20024;-76
2023/03/27 04:43:04;;;;;;;13.48;4.28;;;332.80;2329.60;;;;;;5117108;27;20035;-75
2023/03/27 04:45:31;;;;;;;9.63;4.70;;;308.00;2304.00;;;;;;5101229;27;20050;-76
2023/03/27 04:47:57;;;;;;;10.90;4.10;;;307.90;2304.00;;;;;;5122268;27;20056;-76
2023/03/27 04:50:23;;;;;;;10.02;3.53;;;307.70;2304.00;;;;;;5098427;28;20027;-76
2023/03/27 04:52:50;;;;;;;8.70;4.32;;;307.60;2304.00;;;;;;5117556;27;20120;-77
2023/03/27 04:55:17;;;;;;;6.60;3.42;;;307.40;2304.00;;;;;;5099934;28;20020;-76
2023/03/27 04:57:46;;;;;;;5.65;3.47;;;307.30;2304.00;;;;;;5095320;28;20030;-76
2023/03/27 05:00:15;;;;;;;8.57;3.83;;;307.20;2304.00;;;;;;5113505;27;20134;-76
2023/03/27 05:02:41;;;;;;;8.23;3.53;;;307.20;2304.00;;;;;;5116220;27;20554;-76
2023/03/27 05:05:08;;;;;;;8.82;4.03;;;307.20;2304.00;;;;;;5121944;27;20032;-75
2023/03/27 05:07:34;;;;;;;6.78;3.60;;;307.20;2304.00;;;;;;5095183;28;20485;-76
2023/03/27 05:10:01;;;;;;;8.50;5.00;;;307.20;2304.00;;;;;;5113472;28;20024;-75
2023/03/27 05:12:27;;;;;;;9.00;3.75;;;307.20;2304.00;;;;;;5100668;28;20027;-76
2023/03/27 05:14:53;;;;;;;5.63;3.30;;;307.30;2304.00;;;;;;5100772;28;20028;-76
2023/03/27 05:17:19;;;;;;;6.97;4.32;;;307.30;2304.00;;;;;;5095095;28;20026;-76
2023/03/27 05:19:45;;;;;;;7.75;3.72;;;307.30;2304.00;;;;;;5121743;27;20019;-75
2023/03/27 05:22:11;;;;;;;10.77;5.07;;;307.30;2304.00;;;;;;5098495;27;20470;-76
2023/03/27 05:24:37;;;;;;;7.28;3.67;;;307.40;2304.00;;;;;;5114262;27;20500;-76
2023/03/27 05:27:04;;;;;;;5.85;3.47;;;307.20;2304.00;;;;;;5097601;28;20042;-76
2023/03/27 05:29:29;;;;;;;11.80;3.60;;;307.20;2304.00;;;;;;5103917;28;20026;-76
2023/03/27 05:31:55;;;;;;;6.53;3.28;;;282.40;2278.40;;;;;;5095320;28;20020;-75
2023/03/27 05:34:21;;;;;;;8.13;4.10;;;282.40;2278.40;;;;;;5101671;28;20044;-75
2023/03/27 05:36:48;;;;;;;8.77;3.35;;;282.30;2278.40;;;;;;5104818;28;20032;-76
2023/03/27 05:39:14;;;;;;;5.85;3.42;;;282.30;2278.40;;;;;;5091611;28;20024;-75
2023/03/27 05:41:40;;;;;;;6.55;3.35;;;282.20;2278.40;;;;;;5086507;28;20032;-75
2023/03/27 05:44:06;;;;;;;6.63;3.63;;;282.20;2278.40;;;;;;5082080;28;20027;-75
2023/03/27 05:46:31;;;;;;;6.90;4.30;;;282.10;2278.40;;;;;;5084742;28;20063;-75
2023/03/27 05:49:00;;;;;;;9.73;4.05;;;282.00;2278.40;;;;;;5097645;28;20473;-76
2023/03/27 05:51:26;;;;;;;7.28;4.40;;;282.00;2278.40;;;;;;5084271;28;20066;-74
2023/03/27 05:53:52;;;;;;;8.82;3.90;;;282.00;2278.40;;;;;;5100212;28;20028;-75
2023/03/27 05:56:17;;;;;;;8.90;3.90;;;282.00;2278.40;;;;;;5098962;28;20031;-75
2023/03/27 05:58:43;;;;;;;;;;;282.00;2278.40;;;;;;5100571;28;20034;-75
2023/03/27 06:01:10;;;;;;;8.23;3.97;;;282.00;2278.40;;;;;;5100885;28;19908;-74
2023/03/27 06:03:37;;;;;;;6.45;3.80;;;282.00;2278.40;;;;;;5100031;28;20047;-75
2023/03/27 06:06:10;;;;;;;9.40;4.82;;;282.00;2278.40;;;;;;5098874;28;20124;-75
2023/03/27 06:08:36;;;;;;;7.60;4.50;;;282.00;2278.40;;;;;;5076362;28;20028;-74
2023/03/27 06:11:10;;;;;;;8.20;4.18;;;282.10;2278.40;;;;;;5102896;28;20100;-76
2023/03/27 06:13:36;;;;;;;9.88;4.22;;;282.20;2278.40;;;;;;5082233;28;20052;-78
2023/03/27 06:16:04;;;;;;;9.25;4.22;;;282.20;2278.40;;;;;;5080987;28;20024;-78
2023/03/27 06:18:30;;;;;;;20.05;8.60;;;282.30;2278.40;;;;;;5087439;28;20085;-74
2023/03/27 06:20:57;;;;;;;12.98;6.85;;;282.50;1996.80;;;;;;5083851;28;20038;-75
2023/03/27 06:23:22;;;;;;;12.93;7.13;;;282.50;2278.40;;;;;;5099226;28;20027;-75
2023/03/27 06:25:50;;;;;;;11.23;6.63;;;282.40;2048.00;;;;;;5082547;28;20029;-76
2023/03/27 06:28:15;;;;;;;10.43;6.35;;;282.50;2022.40;;;;;;5079046;28;20032;-78
2023/03/27 06:30:41;;;;;;;7.20;4.38;;;307.20;2304.00;;;;;;5082708;28;20024;-75
2023/03/27 06:33:07;;;;;;;7.43;4.20;;;307.30;2304.00;;;;;;5079121;28;20044;-76
2023/03/27 06:35:33;;;;;;;;;;;307.30;2304.00;;;;;;5086542;28;20044;-76
2023/03/27 06:38:01;;;;;;;6.32;2.50;;;307.50;2304.00;;;;;;5092085;28;19915;-78
2023/03/27 06:40:28;;;;;;;4.80;2.88;;;307.40;2304.00;;;;;;5106892;28;20024;-76
2023/03/27 06:42:59;;;;;;;6.38;2.95;;;307.30;2304.00;;;;;;5091639;28;20051;-76
2023/03/27 06:45:33;;;;;;;3.55;1.90;;;307.50;2304.00;;;;;;5113115;28;20389;-76
2023/03/27 06:48:02;;;;;;;4.22;2.22;;;307.40;2304.00;;;;;;5090006;28;20507;-77
2023/03/27 06:50:29;;;;;;;4.95;2.08;;;307.50;2304.00;;;;;;5107428;28;20020;-77
2023/03/27 06:52:55;;;;;;;4.35;2.30;;;307.50;2304.00;;;;;;5106279;28;20024;-80
2023/03/27 06:55:25;;;;;;;4.80;2.13;;;307.50;2304.00;;;;;;5090693;28;20091;-77
2023/03/27 06:57:53;;;;;;;5.68;3.08;;;307.50;2304.00;;;;;;5106294;28;20059;-79
2023/03/27 07:00:23;;;;;;;5.85;2.10;;;307.50;2304.00;;;;;;5093332;28;20028;-80
2023/03/27 07:02:56;;;;;;;5.85;1.70;;;307.60;2304.00;;;;;;5087956;28;20028;-79
2023/03/27 07:05:25;;;;;;;3.45;1.70;;;307.70;2304.00;;;;;;5104423;28;20027;-77
2023/03/27 07:07:51;;;;;;;3.20;1.60;;;307.70;2304.00;;;;;;5084120;28;20099;-78
2023/03/27 07:10:19;;;;;;;3.95;1.70;;;307.60;2304.00;;;;;;5093463;28;20034;-78
2023/03/27 07:12:49;;;;;;;3.97;1.98;;;307.60;2304.00;;;;;;5080474;28;20035;-78
2023/03/27 07:15:16;;;;;;;4.47;2.40;;;307.70;2304.00;;;;;;5094677;28;20027;-80
2023/03/27 07:17:43;;;;;;;3.67;2.30;;;307.80;2304.00;;;;;;5092393;28;20115;-80
2023/03/27 07:20:13;;;;;;;5.78;2.90;;;307.70;2304.00;;;;;;5108854;28;20546;-82
2023/03/27 07:22:42;;;;;;;8.55;3.17;;;307.70;2304.00;;;;;;5085794;28;20058;-80
2023/03/27 07:25:09;;;;;;;4.45;2.38;;;307.70;2304.00;;;;;;5105016;28;20084;-80
2023/03/27 07:27:36;;;;;;;4.72;2.50;;;307.80;2304.00;;;;;;5100768;28;20112;-79
2023/03/27 07:30:03;;;;;;;6.63;4.13;;;307.80;2304.00;;;;;;5091139;28;20020;-79
2023/03/27 07:32:29;;;;;;;8.35;4.55;;;307.90;2304.00;;;;;;5078769;28;20500;-79
2023/03/27 07:34:55;;;;;;;5.03;2.85;;;308.00;2304.00;;;;;;5094769;28;20138;-80
2023/03/27 07:37:22;;;;;;;6.15;2.55;;;332.80;2329.60;;;;;;5084094;28;20120;-79
2023/03/27 07:39:48;;;;;;;5.05;2.08;;;332.90;2329.60;;;;;;5083587;28;20478;-80
2023/03/27 07:42:14;;;;;;;4.55;2.40;;;333.00;2329.60;;;;;;5103723;28;20032;-79
2023/03/27 07:44:40;;;;;;;3.45;1.58;;;333.10;2329.60;;;;;;5103028;28;20031;-79
2023/03/27 07:47:06;;;;;;;8.45;2.00;;;333.20;2329.60;;;;;;5102078;28;20494;-77
2023/03/27 07:49:32;;;;;;;5.45;2.35;;;333.20;2329.60;;;;;;5098132;28;20030;-77
2023/03/27 07:51:59;;;;;;;8.15;2.22;;;333.30;2329.60;;;;;;5077739;28;20036;-78
2023/03/27 07:54:25;;;;;;;6.55;3.60;;;333.40;2329.60;;;;;;5105377;28;20020;-79
2023/03/27 07:56:52;;;;;;;4.80;2.30;;;333.40;2329.60;;;;;;5090611;28;20043;-76
2023/03/27 07:59:19;;;;;;;5.05;2.08;;;333.40;2329.60;;;;;;5098114;28;20031;-79
2023/03/27 08:01:47;;;;;;;5.78;2.28;;;333.50;2329.60;;;;;;5088971;28;20052;-78
2023/03/27 08:04:14;;;;;;;4.75;2.08;;;333.60;2329.60;;;;;;5078045;28;20040;-80
2023/03/27 08:06:39;;;;;;;7.13;2.67;;;333.50;2329.60;;;;;;5079952;28;20071;-77
2023/03/27 08:09:05;;;;;;;8.15;3.13;;;333.60;2329.60;;;;;;5094108;28;20082;-81
2023/03/27 08:11:31;;;;;;;8.27;4.20;;;333.70;2329.60;;;;;;5087398;28;20032;-85
2023/03/27 08:13:57;;;;;;;4.40;2.10;;;333.70;2329.60;;;;;;5090812;28;20401;-82
2023/03/27 08:16:27;;;;;;;8.38;2.70;;;333.70;2329.60;;;;;;5096400;28;20032;-87
2023/03/27 08:18:53;;;;;;;5.18;2.38;;;358.50;2329.60;;;;;;5086229;28;20028;-78
2023/03/27 08:21:19;;;;;;;6.95;4.13;;;358.50;2329.60;;;;;;5091263;28;20020;-80
2023/03/27 08:23:45;;;;;;;3.72;2.17;;;358.70;2329.60;;;;;;5085482;28;20477;-87
2023/03/27 08:26:12;;;;;;;5.72;3.03;;;358.80;2329.60;;;;;;5080558;28;20079;-85
2023/03/27 08:28:38;;;;;;;5.43;2.10;;;358.90;2329.60;;;;;;5082248;28;20020;-88
2023/03/27 08:31:12;;;;;;;6.47;2.28;;;358.90;2329.60;;;;;;5084870;28;20039;-78
2023/03/27 08:33:40;;;;;;;3.65;2.08;;;358.90;2329.60;;;;;;5086557;28;20170;-80
2023/03/27 08:36:07;;;;;;;3.90;2.20;;;359.10;2329.60;;;;;;5112181;28;20492;-80
2023/03/27 08:38:33;;;;;;;3.92;1.85;;;359.00;2329.60;;;;;;5087050;28;20036;-80
2023/03/27 08:41:02;;;;;;;4.43;2.15;;;359.00;2329.60;;;;;;5103756;28;20012;-80
2023/03/27 08:43:40;;;;;;;5.82;2.20;;;359.00;2329.60;;;;;;5086474;28;20024;-76
2023/03/27 08:46:20;;;;;;;5.07;2.33;;;359.10;2329.60;;;;;;5090456;28;20050;-83
2023/03/27 08:49:16;;;;;;;6.47;2.47;;;359.10;2329.60;;;;;;5094963;28;20047;-82
2023/03/27 08:51:52;;;;;;;4.97;2.33;;;359.20;2329.60;;;;;;5103261;28;20111;-84
2023/03/27 08:54:23;;;;;;;5.07;1.85;;;359.20;2329.60;;;;;;5105147;28;20073;-80
2023/03/27 08:56:49;;;;;;;4.80;2.20;;;359.30;2329.60;;;;;;5102015;28;20385;-76
2023/03/27 08:59:19;;;;;;;5.38;2.38;;;384.00;2329.60;;;;;;5106196;28;20031;-79
2023/03/27 09:01:50;;;;;;;3.85;2.17;;;384.00;2329.60;;;;;;5093897;28;20469;-79
2023/03/27 09:04:37;;;;;;;4.72;1.90;;;384.00;2329.60;;;;;;5106862;28;20027;-80
2023/03/27 09:07:10;;;;;;;;;;;359.30;2329.60;;;;;;5089489;28;20036;-79
2023/03/27 09:09:59;;;;;;;6.13;2.58;;;384.00;2329.60;;;;;;5102927;28;19918;-82
2023/03/27 09:12:57;;;;;;;5.97;1.63;;;384.10;2329.60;;;;;;5100374;28;20023;-79
2023/03/27 09:15:27;;;;;;;4.88;2.40;;;384.20;2329.60;;;;;;5080056;28;20036;-85
2023/03/27 09:18:10;;;;;;;5.72;2.13;;;384.40;2329.60;;;;;;5087342;28;20495;-77
2023/03/27 09:20:41;;;;;;;3.72;1.95;;;384.50;2329.60;;;;;;5086767;28;20028;-76
2023/03/27 09:23:13;;;;;;;4.22;2.25;;;384.50;2329.60;;;;;;5079146;28;20070;-76
2023/03/27 09:25:45;;;;;;;4.55;2.22;;;384.60;2329.60;;;;;;5085828;28;20084;-80
2023/03/27 09:28:21;;;;;;;7.60;2.10;;;384.50;2329.60;;;;;;5080740;28;20028;-77
2023/03/27 09:30:47;;;;;;;5.13;1.77;;;384.40;2329.60;;;;;;5081730;28;20111;-79
2023/03/27 09:33:13;;;;;;;5.30;2.17;;;384.20;2329.60;;;;;;5088502;28;20473;-80
2023/03/27 09:35:39;;;;;;;4.55;2.33;;;384.10;2329.60;;;;;;5088826;28;20101;-80
2023/03/27 09:38:25;;;;;;;4.32;2.35;;;384.10;2329.60;;;;;;5103080;28;20039;-78
2023/03/27 09:40:57;;;;;;;4.07;2.83;;;384.00;2329.60;;;;;;5087115;28;20024;-78
2023/03/27 09:43:39;;;;;;;5.13;2.88;;;384.00;2329.60;;;;;;5104425;28;20027;-78
2023/03/27 09:46:06;;;;;;;6.40;3.10;;;359.30;2329.60;;;;;;5089105;28;20027;-70
2023/03/27 09:48:37;;;;;;;7.88;3.78;;;359.30;2329.60;;;;;;5099561;28;20106;-70
2023/03/27 09:51:04;;;;;;;7.40;4.80;;;359.20;2329.60;;;;;;5081067;28;20028;-70
2023/03/27 09:53:31;;;;;;;7.97;5.05;;;384.00;2329.60;;;;;;5087069;28;20063;-69
2023/03/27 09:56:00;;;;;;;7.05;4.97;;;384.10;2329.60;;;;;;5095173;28;20016;-71
2023/03/27 09:58:29;;;;;;;5.95;4.18;;;384.30;2329.60;;;;;;5099753;28;20028;-70
2023/03/27 10:01:06;;;;;;;6.05;4.60;;;384.40;2329.60;;;;;;5101387;28;20532;-70
2023/03/27 10:03:37;;;;;;;6.10;4.15;;;384.30;2329.60;;;;;;5101962;28;20021;-70
2023/03/27 10:06:09;;;;;;;6.40;4.43;;;384.10;2329.60;;;;;;5105046;28;20047;-70
2023/03/27 10:08:45;;;;;;;9.73;4.72;;;384.00;2329.60;;;;;;5099869;28;20073;-70
2023/03/27 10:11:20;;;;;;;8.10;5.50;;;359.20;2329.60;;;;;;5107339;28;20115;-70
2023/03/27 10:13:48;;;;;;;8.63;6.05;;;359.20;2329.60;;;;;;5110422;28;20083;-69
2023/03/27 10:16:16;;;;;;;6.35;5.30;;;359.20;2329.60;;;;;;5104138;28;20061;-72
2023/03/27 10:18:48;;;;;;;5.95;4.57;;;359.10;2329.60;;;;;;5105318;28;20026;-70
2023/03/27 10:21:28;;;;;;;11.45;5.75;;;384.00;2329.60;;;;;;5100914;28;20028;-71
2023/03/27 10:24:04;;;;;;;6.00;4.38;;;384.30;2329.60;;;;;;5104327;28;20020;-69
2023/03/27 10:26:32;;;;;;;8.18;5.05;;;384.60;2329.60;;;;;;5102767;28;20134;-70
2023/03/27 10:29:20;;;;;;;5.25;4.10;;;384.60;2329.60;;;;;;5107241;28;20012;-71
2023/03/27 10:31:58;;;;;;;8.43;4.47;;;384.80;2329.60;;;;;;5104736;28;20028;-71
2023/03/27 10:34:50;;;;;;;5.57;3.83;;;384.90;2329.60;;;;;;5103595;28;20050;-71
2023/03/27 10:37:29;;;;;;;4.25;3.53;;;384.60;2329.60;;;;;;5106316;28;20046;-75
2023/03/27 10:39:58;;;;;;;5.15;3.47;;;384.20;2329.60;;;;;;5091979;28;20028;-70
2023/03/27 10:42:27;;;;;;;4.07;3.13;;;384.90;2329.60;;;;;;5106146;28;20107;-70
2023/03/27 10:44:55;;;;;;;4.13;2.85;;;384.30;2329.60;;;;;;5099089;28;20035;-70
2023/03/27 10:47:29;;;;;;;3.22;2.38;;;384.00;2329.60;;;;;;5098911;28;20401;-71
2023/03/27 10:50:09;;;;;;;3.03;2.05;;;384.20;2329.60;;;;;;5103265;28;20031;-71
2023/03/27 10:52:41;;;;;;;3.22;2.20;;;384.20;2329.60;;;;;;5112586;28;20407;-71
2023/03/27 10:55:40;;;;;;;2.40;1.90;;;359.30;2329.60;;;;;;5107550;28;20155;-75
2023/03/27 10:58:18;;;;;;;3.03;1.70;;;359.20;2329.60;;;;;;5111734;28;20016;-78
2023/03/27 11:00:52;;;;;;;4.22;1.80;;;359.30;2329.60;;;;;;5106247;28;20020;-72
2023/03/27 11:03:54;;;;;;;3.63;1.40;;;384.30;2329.60;;;;;;5108334;28;20164;-72
2023/03/27 11:06:24;;;;;;;2.78;1.70;;;384.20;2329.60;;;;;;5040860;28;20053;-70
2023/03/27 11:09:08;;;;;;;4.63;2.22;;;384.10;2329.60;;;;;;5037464;28;20034;-71
2023/03/27 11:11:43;;;;;;;3.50;1.80;;;384.00;2329.60;;;;;;5041433;28;20125;-70
2023/03/27 11:14:22;;;;;;;2.40;1.58;;;384.00;2329.60;;;;;;5036382;28;20026;-78
2023/03/27 11:16:52;;;;;;;3.45;2.30;;;384.00;2329.60;;;;;;5040294;28;20380;-77
2023/03/27 11:19:41;;;;;;;4.55;2.17;;;359.20;2329.60;;;;;;5044053;28;20116;-77
2023/03/27 11:22:24;;;;;;;2.72;1.58;;;359.10;2329.60;;;;;;5016502;28;20026;-77
2023/03/27 11:24:57;;;;;;;2.95;1.70;;;358.90;2329.60;;;;;;5023438;28;20036;-76
2023/03/27 11:27:50;;;;;;;3.55;2.03;;;358.50;2329.60;;;;;;5031213;28;20041;-77
2023/03/27 11:30:31;;;;;;;5.00;2.30;;;333.70;2329.60;;;;;;5036325;28;20099;-77
2023/03/27 11:33:23;;;;;;;3.80;1.98;;;333.60;2329.60;;;;;;5044603;28;20108;-76
2023/03/27 11:35:56;;;;;;;6.32;2.28;;;333.50;2329.60;;;;;;5040452;28;20049;-77
2023/03/27 11:38:31;;;;;;;6.30;2.40;;;333.50;2329.60;;;;;;5025988;28;20032;-77
2023/03/27 11:40:57;;;;;;;5.43;2.20;;;333.50;2329.60;;;;;;5039330;28;20064;-77
2023/03/27 11:43:23;;;;;;;5.68;2.08;;;333.50;2329.60;;;;;;5081820;28;20067;-76
2023/03/27 11:45:49;;;;;;;4.60;2.20;;;333.60;2329.60;;;;;;5091215;28;20031;-77
2023/03/27 11:48:15;;;;;;;3.22;2.03;;;333.60;2329.60;;;;;;5098082;28;20036;-75
2023/03/27 11:51:05;;;;;;;3.75;1.90;;;333.50;2329.60;;;;;;5106783;28;20051;-76
2023/03/27 11:53:50;;;;;;;4.63;2.15;;;333.50;2329.60;;;;;;5081609;28;20554;-77
2023/03/27 11:57:09;;;;;;;4.25;2.10;;;333.40;2329.60;;;;;;5100643;28;20028;-77
2023/03/27 11:59:47;;;;;;;4.45;1.88;;;333.20;2329.60;;;;;;5014328;28;20168;-77
2023/03/27 12:02:40;;;;;;;5.78;2.67;;;333.00;2329.60;;;;;;5025049;28;20030;-77
2023/03/27 12:05:36;;;;;;;4.30;2.25;;;333.00;2329.60;;;;;;5021392;28;20506;-77
2023/03/27 12:08:26;;;;;;;8.43;2.45;;;332.90;2329.60;;;;;;5030540;28;20045;-77
2023/03/27 12:10:53;;;;;;;3.40;2.35;;;333.00;2329.60;;;;;;5012472;28;20021;-77
2023/03/27 12:13:21;;;;;;;3.40;1.90;;;333.00;2329.60;;;;;;5027717;28;20572;-77
2023/03/27 12:16:07;;;;;;;3.85;2.40;;;333.00;2329.60;;;;;;5009556;28;20033;-77
2023/03/27 12:18:42;;;;;;;5.00;2.13;;;332.90;2329.60;;;;;;5014200;28;20049;-75
2023/03/27 12:21:17;;;;;;;5.03;2.50;;;332.90;2329.60;;;;;;5025134;28;20602;-74
2023/03/27 12:24:16;;;;;;;8.95;5.05;;;332.90;2329.60;;;;;;5024532;28;20045;-77
2023/03/27 12:26:50;;;;;;;4.90;3.00;;;332.80;2329.60;;;;;;5013610;28;20372;-78
2023/03/27 12:29:46;;;;;;;5.20;3.30;;;332.80;2329.60;;;;;;5012556;28;20112;-75
2023/03/27 12:32:23;;;;;;;7.45;3.53;;;332.80;2329.60;;;;;;5008138;28;20116;-77
2023/03/27 12:35:02;;;;;;;5.72;2.92;;;332.80;2329.60;;;;;;5078684;28;20059;-75
2023/03/27 12:37:37;;;;;;;5.40;2.30;;;332.80;2329.60;;;;;;5104726;28;20029;-75
2023/03/27 12:40:24;;;;;;;3.95;2.15;;;332.90;2329.60;;;;;;5080833;28;20067;-75
2023/03/27 12:43:03;;;;;;;5.07;2.58;;;333.20;2329.60;;;;;;5085722;28;20482;-76